sensor_id;sensor_type;location;lat;lon;timestamp;temperature;humidity
37594;DHT22;23441;50.856;6.076;2024-03-23T00:53:05;6.60;99.90
37594;DHT22;23441;50.856;6.076;2024-03-23T00:56:01;6.60;99.90
37594;DHT22;23441;50.856;6.076;2024-03-23T00:58:52;6.60;99.90
37594;DHT22;23441;50.856;6.076;2024-03-23T01:01:38;6.60;99.90
37594;DHT22;23441;50.856;6.076;2024-03-23T01:04:24;6.60;99.90
37594;DHT22;23441;50.856;6.076;2024-03-23T01:07:10;6.60;99.90
37594;DHT22;23441;50.856;6.076;2024-03-23T01:09:56;6.60;99.90
37594;DHT22;23441;50.856;6.076;2024-03-23T01:12:42;6.40;99.90
37594;DHT22;23441;50.856;6.076;2024-03-23T01:15:28;6.30;99.90
37594;DHT22;23441;50.856;6.076;2024-03-23T01:18:14;6.30;99.90
37594;DHT22;23441;50.856;6.076;2024-03-23T01:21:00;6.10;99.90
37594;DHT22;23441;50.856;6.076;2024-03-23T01:23:46;6.00;99.90
37594;DHT22;23441;50.856;6.076;2024-03-23T01:26:31;5.90;99.90
37594;DHT22;23441;50.856;6.076;2024-03-23T01:29:17;5.80;99.90
37594;DHT22;23441;50.856;6.076;2024-03-23T01:32:04;5.80;99.90
37594;DHT22;23441;50.856;6.076;2024-03-23T01:34:50;5.70;99.90
37594;DHT22;23441;50.856;6.076;2024-03-23T01:37:35;5.70;99.90
37594;DHT22;23441;50.856;6.076;2024-03-23T01:40:21;5.80;99.90
37594;DHT22;23441;50.856;6.076;2024-03-23T01:43:08;5.80;99.90
37594;DHT22;23441;50.856;6.076;2024-03-23T01:45:54;5.70;99.90
37594;DHT22;23441;50.856;6.076;2024-03-23T01:48:40;5.70;99.90
37594;DHT22;23441;50.856;6.076;2024-03-23T01:51:27;5.70;99.90
37594;DHT22;23441;50.856;6.076;2024-03-23T01:54:14;5.60;99.90
37594;DHT22;23441;50.856;6.076;2024-03-23T01:57:01;5.60;99.90
37594;DHT22;23441;50.856;6.076;2024-03-23T01:59:47;5.70;99.90
37594;DHT22;23441;50.856;6.076;2024-03-23T02:02:33;5.70;99.90
37594;DHT22;23441;50.856;6.076;2024-03-23T02:05:19;5.70;99.90
37594;DHT22;23441;50.856;6.076;2024-03-23T02:08:06;5.70;99.90
37594;DHT22;23441;50.856;6.076;2024-03-23T02:10:52;5.70;99.90
37594;DHT22;23441;50.856;6.076;2024-03-23T02:13:38;5.80;99.90
37594;DHT22;23441;50.856;6.076;2024-03-23T02:16:23;5.80;99.90
37594;DHT22;23441;50.856;6.076;2024-03-23T02:19:09;5.80;99.90
37594;DHT22;23441;50.856;6.076;2024-03-23T02:21:55;5.80;99.90
37594;DHT22;23441;50.856;6.076;2024-03-23T02:24:42;5.80;99.90
37594;DHT22;23441;50.856;6.076;2024-03-23T02:27:28;5.80;99.90
37594;DHT22;23441;50.856;6.076;2024-03-23T02:30:14;5.70;99.90
37594;DHT22;23441;50.856;6.076;2024-03-23T02:33:00;5.70;99.90
37594;DHT22;23441;50.856;6.076;2024-03-23T02:35:46;5.70;99.90
37594;DHT22;23441;50.856;6.076;2024-03-23T02:38:32;5.60;99.90
37594;DHT22;23441;50.856;6.076;2024-03-23T02:41:18;5.60;99.90
37594;DHT22;23441;50.856;6.076;2024-03-23T02:44:08;5.50;99.90
37594;DHT22;23441;50.856;6.076;2024-03-23T02:46:57;5.50;99.90
37594;DHT22;23441;50.856;6.076;2024-03-23T02:49:43;5.50;99.90
37594;DHT22;23441;50.856;6.076;2024-03-23T02:52:29;5.70;99.90
37594;DHT22;23441;50.856;6.076;2024-03-23T02:55:15;5.70;99.90
37594;DHT22;23441;50.856;6.076;2024-03-23T02:58:01;5.70;99.90
37594;DHT22;23441;50.856;6.076;2024-03-23T03:00:47;5.70;99.90
37594;DHT22;23441;50.856;6.076;2024-03-23T03:03:33;5.60;99.90
37594;DHT22;23441;50.856;6.076;2024-03-23T03:06:26;5.60;99.90
37594;DHT22;23441;50.856;6.076;2024-03-23T03:09:12;5.60;99.90
37594;DHT22;23441;50.856;6.076;2024-03-23T03:11:58;5.60;99.90
37594;DHT22;23441;50.856;6.076;2024-03-23T03:14:44;5.60;99.90
37594;DHT22;23441;50.856;6.076;2024-03-23T03:17:30;5.50;99.90
37594;DHT22;23441;50.856;6.076;2024-03-23T03:20:16;5.60;99.90
37594;DHT22;23441;50.856;6.076;2024-03-23T03:23:03;5.70;99.90
37594;DHT22;23441;50.856;6.076;2024-03-23T03:25:50;5.70;99.90
37594;DHT22;23441;50.856;6.076;2024-03-23T03:28:36;5.70;99.90
37594;DHT22;23441;50.856;6.076;2024-03-23T03:31:22;5.70;99.90
37594;DHT22;23441;50.856;6.076;2024-03-23T03:34:08;5.70;99.90
37594;DHT22;23441;50.856;6.076;2024-03-23T03:36:54;5.60;99.90
37594;DHT22;23441;50.856;6.076;2024-03-23T03:39:40;5.60;99.90
37594;DHT22;23441;50.856;6.076;2024-03-23T03:42:26;5.50;99.90
37594;DHT22;23441;50.856;6.076;2024-03-23T03:45:12;5.50;99.90
37594;DHT22;23441;50.856;6.076;2024-03-23T03:47:58;5.50;99.90
37594;DHT22;23441;50.856;6.076;2024-03-23T03:50:44;5.50;99.90
37594;DHT22;23441;50.856;6.076;2024-03-23T03:53:31;5.50;99.90
37594;DHT22;23441;50.856;6.076;2024-03-23T03:56:17;5.50;99.90
37594;DHT22;23441;50.856;6.076;2024-03-23T03:59:02;5.50;99.90
37594;DHT22;23441;50.856;6.076;2024-03-23T04:01:48;5.50;99.90
37594;DHT22;23441;50.856;6.076;2024-03-23T04:04:34;5.60;99.90
37594;DHT22;23441;50.856;6.076;2024-03-23T04:07:20;5.50;99.90
37594;DHT22;23441;50.856;6.076;2024-03-23T04:10:08;5.50;99.90
37594;DHT22;23441;50.856;6.076;2024-03-23T04:12:55;5.40;99.90
37594;DHT22;23441;50.856;6.076;2024-03-23T04:15:41;5.40;99.90
37594;DHT22;23441;50.856;6.076;2024-03-23T04:18:27;5.40;99.90
37594;DHT22;23441;50.856;6.076;2024-03-23T04:21:12;5.40;99.90
37594;DHT22;23441;50.856;6.076;2024-03-23T04:23:58;5.40;99.90
37594;DHT22;23441;50.856;6.076;2024-03-23T04:26:50;5.30;99.90
37594;DHT22;23441;50.856;6.076;2024-03-23T04:29:36;5.40;99.90
37594;DHT22;23441;50.856;6.076;2024-03-23T04:32:22;5.30;99.90
37594;DHT22;23441;50.856;6.076;2024-03-23T04:35:08;5.30;99.90
37594;DHT22;23441;50.856;6.076;2024-03-23T04:37:55;5.30;99.90
37594;DHT22;23441;50.856;6.076;2024-03-23T04:40:57;5.30;99.90
37594;DHT22;23441;50.856;6.076;2024-03-23T04:43:43;5.30;99.90
37594;DHT22;23441;50.856;6.076;2024-03-23T04:46:29;5.20;99.90
37594;DHT22;23441;50.856;6.076;2024-03-23T04:49:14;5.30;99.90
37594;DHT22;23441;50.856;6.076;2024-03-23T04:52:00;5.30;99.90
37594;DHT22;23441;50.856;6.076;2024-03-23T04:54:46;5.20;99.90
37594;DHT22;23441;50.856;6.076;2024-03-23T04:57:32;5.30;99.90
37594;DHT22;23441;50.856;6.076;2024-03-23T05:00:18;5.20;99.90
37594;DHT22;23441;50.856;6.076;2024-03-23T05:03:04;5.30;99.90
37594;DHT22;23441;50.856;6.076;2024-03-23T05:05:50;5.20;99.90
37594;DHT22;23441;50.856;6.076;2024-03-23T05:08:36;5.20;99.90
37594;DHT22;23441;50.856;6.076;2024-03-23T05:11:22;5.20;99.90
37594;DHT22;23441;50.856;6.076;2024-03-23T05:14:08;5.20;99.90
37594;DHT22;23441;50.856;6.076;2024-03-23T05:16:54;5.20;99.90
37594;DHT22;23441;50.856;6.076;2024-03-23T05:19:41;5.10;99.90
37594;DHT22;23441;50.856;6.076;2024-03-23T05:22:27;5.10;99.90
37594;DHT22;23441;50.856;6.076;2024-03-23T05:25:13;5.10;99.90
37594;DHT22;23441;50.856;6.076;2024-03-23T05:27:59;5.10;99.90
37594;DHT22;23441;50.856;6.076;2024-03-23T05:30:51;5.00;99.90
37594;DHT22;23441;50.856;6.076;2024-03-23T05:33:37;5.00;99.90
37594;DHT22;23441;50.856;6.076;2024-03-23T05:36:26;4.90;99.90
37594;DHT22;23441;50.856;6.076;2024-03-23T05:39:12;4.90;99.90
37594;DHT22;23441;50.856;6.076;2024-03-23T05:42:02;4.90;99.90
37594;DHT22;23441;50.856;6.076;2024-03-23T05:44:48;4.80;99.90
37594;DHT22;23441;50.856;6.076;2024-03-23T05:47:34;4.80;99.90
37594;DHT22;23441;50.856;6.076;2024-03-23T05:50:20;4.70;99.90
37594;DHT22;23441;50.856;6.076;2024-03-23T05:53:06;4.70;99.90
37594;DHT22;23441;50.856;6.076;2024-03-23T05:56:00;4.70;99.90
37594;DHT22;23441;50.856;6.076;2024-03-23T05:58:49;4.80;99.90
37594;DHT22;23441;50.856;6.076;2024-03-23T06:01:35;4.80;99.90
37594;DHT22;23441;50.856;6.076;2024-03-23T06:04:21;4.80;99.90
37594;DHT22;23441;50.856;6.076;2024-03-23T06:07:09;4.90;99.90
37594;DHT22;23441;50.856;6.076;2024-03-23T06:09:59;4.90;99.90
37594;DHT22;23441;50.856;6.076;2024-03-23T06:12:48;5.00;99.90
37594;DHT22;23441;50.856;6.076;2024-03-23T06:15:34;5.00;99.90
37594;DHT22;23441;50.856;6.076;2024-03-23T06:18:23;5.10;99.90
37594;DHT22;23441;50.856;6.076;2024-03-23T06:21:13;5.20;99.90
37594;DHT22;23441;50.856;6.076;2024-03-23T06:23:59;5.50;99.90
37594;DHT22;23441;50.856;6.076;2024-03-23T06:26:45;5.70;99.90
37594;DHT22;23441;50.856;6.076;2024-03-23T06:29:31;5.70;99.90
37594;DHT22;23441;50.856;6.076;2024-03-23T06:32:18;6.10;99.90
37594;DHT22;23441;50.856;6.076;2024-03-23T06:35:04;6.50;99.90
37594;DHT22;23441;50.856;6.076;2024-03-23T06:37:54;6.80;99.90
37594;DHT22;23441;50.856;6.076;2024-03-23T06:40:40;7.00;99.90
37594;DHT22;23441;50.856;6.076;2024-03-23T06:43:26;7.20;99.90
37594;DHT22;23441;50.856;6.076;2024-03-23T06:46:12;7.60;99.90
37594;DHT22;23441;50.856;6.076;2024-03-23T06:48:58;7.60;99.90
37594;DHT22;23441;50.856;6.076;2024-03-23T06:51:45;8.00;99.90
37594;DHT22;23441;50.856;6.076;2024-03-23T06:54:31;8.30;99.90
37594;DHT22;23441;50.856;6.076;2024-03-23T06:57:17;8.40;99.90
37594;DHT22;23441;50.856;6.076;2024-03-23T07:00:03;8.20;99.90
37594;DHT22;23441;50.856;6.076;2024-03-23T07:02:49;7.40;99.90
37594;DHT22;23441;50.856;6.076;2024-03-23T07:05:35;6.80;99.90
37594;DHT22;23441;50.856;6.076;2024-03-23T07:08:21;6.00;99.90
37594;DHT22;23441;50.856;6.076;2024-03-23T07:11:08;5.90;99.90
37594;DHT22;23441;50.856;6.076;2024-03-23T07:13:53;5.70;99.90
37594;DHT22;23441;50.856;6.076;2024-03-23T07:16:42;5.70;99.90
37594;DHT22;23441;50.856;6.076;2024-03-23T07:19:28;5.80;99.90
37594;DHT22;23441;50.856;6.076;2024-03-23T07:22:14;6.00;99.90
37594;DHT22;23441;50.856;6.076;2024-03-23T07:25:01;6.40;99.90
37594;DHT22;23441;50.856;6.076;2024-03-23T07:27:47;6.60;99.90
37594;DHT22;23441;50.856;6.076;2024-03-23T07:30:33;7.00;99.90
37594;DHT22;23441;50.856;6.076;2024-03-23T07:33:18;7.00;99.90
37594;DHT22;23441;50.856;6.076;2024-03-23T07:36:05;7.20;99.90
37594;DHT22;23441;50.856;6.076;2024-03-23T07:38:51;7.20;99.90
37594;DHT22;23441;50.856;6.076;2024-03-23T07:41:37;7.10;99.90
37594;DHT22;23441;50.856;6.076;2024-03-23T07:44:23;7.30;99.90
37594;DHT22;23441;50.856;6.076;2024-03-23T07:47:08;7.40;99.90
37594;DHT22;23441;50.856;6.076;2024-03-23T07:49:54;7.30;99.90
37594;DHT22;23441;50.856;6.076;2024-03-23T07:52:40;7.40;99.90
37594;DHT22;23441;50.856;6.076;2024-03-23T07:55:26;7.80;99.90
37594;DHT22;23441;50.856;6.076;2024-03-23T07:58:12;7.80;99.90
37594;DHT22;23441;50.856;6.076;2024-03-23T08:01:18;7.80;99.90
37594;DHT22;23441;50.856;6.076;2024-03-23T08:04:04;7.70;99.90
37594;DHT22;23441;50.856;6.076;2024-03-23T08:06:50;7.60;99.90
37594;DHT22;23441;50.856;6.076;2024-03-23T08:09:36;7.60;99.90
37594;DHT22;23441;50.856;6.076;2024-03-23T08:12:22;7.40;99.90
37594;DHT22;23441;50.856;6.076;2024-03-23T08:15:08;7.30;99.90
37594;DHT22;23441;50.856;6.076;2024-03-23T08:17:54;7.30;99.90
37594;DHT22;23441;50.856;6.076;2024-03-23T08:20:40;7.40;99.90
37594;DHT22;23441;50.856;6.076;2024-03-23T08:23:28;7.40;99.90
37594;DHT22;23441;50.856;6.076;2024-03-23T08:26:16;7.40;99.90
37594;DHT22;23441;50.856;6.076;2024-03-23T08:29:03;7.50;99.90
37594;DHT22;23441;50.856;6.076;2024-03-23T08:31:49;7.50;99.90
37594;DHT22;23441;50.856;6.076;2024-03-23T08:34:35;7.50;99.90
37594;DHT22;23441;50.856;6.076;2024-03-23T08:37:21;7.50;99.90
37594;DHT22;23441;50.856;6.076;2024-03-23T08:40:08;7.60;99.90
37594;DHT22;23441;50.856;6.076;2024-03-23T08:42:54;7.70;99.90
37594;DHT22;23441;50.856;6.076;2024-03-23T08:45:40;7.90;99.90
37594;DHT22;23441;50.856;6.076;2024-03-23T08:48:12;8.10;99.90
37594;DHT22;23441;50.856;6.076;2024-03-23T08:50:38;8.10;99.90
37594;DHT22;23441;50.856;6.076;2024-03-23T08:53:22;7.90;99.90
37594;DHT22;23441;50.856;6.076;2024-03-23T08:56:06;8.00;99.90
37594;DHT22;23441;50.856;6.076;2024-03-23T08:58:52;8.00;99.90
37594;DHT22;23441;50.856;6.076;2024-03-23T09:01:38;8.20;99.90
37594;DHT22;23441;50.856;6.076;2024-03-23T09:04:24;8.30;99.90
37594;DHT22;23441;50.856;6.076;2024-03-23T09:07:10;8.30;99.90
37594;DHT22;23441;50.856;6.076;2024-03-23T09:09:56;8.30;99.90
37594;DHT22;23441;50.856;6.076;2024-03-23T09:12:42;8.30;99.90
37594;DHT22;23441;50.856;6.076;2024-03-23T09:15:28;8.40;99.90
37594;DHT22;23441;50.856;6.076;2024-03-23T09:18:14;8.60;99.90
37594;DHT22;23441;50.856;6.076;2024-03-23T09:21:00;8.60;99.90
37594;DHT22;23441;50.856;6.076;2024-03-23T09:23:46;8.30;99.90
37594;DHT22;23441;50.856;6.076;2024-03-23T09:26:32;8.10;99.90
37594;DHT22;23441;50.856;6.076;2024-03-23T09:29:18;7.90;99.90
37594;DHT22;23441;50.856;6.076;2024-03-23T09:32:05;7.80;99.90
37594;DHT22;23441;50.856;6.076;2024-03-23T09:34:51;7.60;99.90
37594;DHT22;23441;50.856;6.076;2024-03-23T09:37:40;7.60;99.90
37594;DHT22;23441;50.856;6.076;2024-03-23T09:40:26;7.70;99.90
37594;DHT22;23441;50.856;6.076;2024-03-23T09:43:12;7.70;99.90
37594;DHT22;23441;50.856;6.076;2024-03-23T09:45:58;7.60;99.90
37594;DHT22;23441;50.856;6.076;2024-03-23T09:48:47;7.40;99.90
37594;DHT22;23441;50.856;6.076;2024-03-23T09:51:33;7.20;99.90
37594;DHT22;23441;50.856;6.076;2024-03-23T09:54:19;7.30;99.90
37594;DHT22;23441;50.856;6.076;2024-03-23T09:57:05;7.20;99.90
37594;DHT22;23441;50.856;6.076;2024-03-23T09:59:51;7.40;99.90
37594;DHT22;23441;50.856;6.076;2024-03-23T10:02:37;7.60;99.90
37594;DHT22;23441;50.856;6.076;2024-03-23T10:05:23;7.90;99.90
37594;DHT22;23441;50.856;6.076;2024-03-23T10:11:15;8.10;99.90
37594;DHT22;23441;50.856;6.076;2024-03-23T10:14:01;8.30;99.90
37594;DHT22;23441;50.856;6.076;2024-03-23T10:16:47;8.40;99.90
37594;DHT22;23441;50.856;6.076;2024-03-23T10:19:33;8.60;99.90
37594;DHT22;23441;50.856;6.076;2024-03-23T10:22:20;8.80;99.90
37594;DHT22;23441;50.856;6.076;2024-03-23T10:25:10;8.70;99.90
37594;DHT22;23441;50.856;6.076;2024-03-23T10:28:00;8.50;99.90
37594;DHT22;23441;50.856;6.076;2024-03-23T10:30:46;8.30;99.90
37594;DHT22;23441;50.856;6.076;2024-03-23T10:33:32;8.20;99.90
37594;DHT22;23441;50.856;6.076;2024-03-23T10:36:19;8.20;99.90
37594;DHT22;23441;50.856;6.076;2024-03-23T10:39:07;8.30;99.90
37594;DHT22;23441;50.856;6.076;2024-03-23T10:41:56;8.30;99.90
37594;DHT22;23441;50.856;6.076;2024-03-23T10:44:42;8.50;99.90
37594;DHT22;23441;50.856;6.076;2024-03-23T10:47:28;8.80;99.90
37594;DHT22;23441;50.856;6.076;2024-03-23T10:50:14;9.10;99.90
37594;DHT22;23441;50.856;6.076;2024-03-23T10:53:01;9.00;99.90
37594;DHT22;23441;50.856;6.076;2024-03-23T10:55:47;9.10;99.90
37594;DHT22;23441;50.856;6.076;2024-03-23T10:58:41;9.20;99.90
37594;DHT22;23441;50.856;6.076;2024-03-23T11:01:27;9.40;99.90
37594;DHT22;23441;50.856;6.076;2024-03-23T11:04:38;9.40;99.90
37594;DHT22;23441;50.856;6.076;2024-03-23T11:10:30;9.50;99.90
37594;DHT22;23441;50.856;6.076;2024-03-23T11:13:23;9.60;99.90
37594;DHT22;23441;50.856;6.076;2024-03-23T11:16:17;9.50;99.90
37594;DHT22;23441;50.856;6.076;2024-03-23T11:19:36;9.40;99.90
37594;DHT22;23441;50.856;6.076;2024-03-23T11:25:24;9.10;99.90
37594;DHT22;23441;50.856;6.076;2024-03-23T11:28:11;9.20;99.90
37594;DHT22;23441;50.856;6.076;2024-03-23T11:30:57;9.50;99.90
37594;DHT22;23441;50.856;6.076;2024-03-23T11:33:43;9.30;99.90
37594;DHT22;23441;50.856;6.076;2024-03-23T11:36:29;9.00;99.90
37594;DHT22;23441;50.856;6.076;2024-03-23T11:39:19;8.90;99.90
37594;DHT22;23441;50.856;6.076;2024-03-23T11:42:05;8.90;99.90
37594;DHT22;23441;50.856;6.076;2024-03-23T11:44:51;9.30;99.90
37594;DHT22;23441;50.856;6.076;2024-03-23T11:47:37;9.60;99.90
37594;DHT22;23441;50.856;6.076;2024-03-23T11:50:23;9.70;99.90
37594;DHT22;23441;50.856;6.076;2024-03-23T11:53:16;9.40;99.90
37594;DHT22;23441;50.856;6.076;2024-03-23T11:56:02;9.10;99.90
37594;DHT22;23441;50.856;6.076;2024-03-23T11:58:48;8.40;99.90
37594;DHT22;23441;50.856;6.076;2024-03-23T12:01:37;8.20;99.90
37594;DHT22;23441;50.856;6.076;2024-03-23T12:04:30;7.90;99.90
37594;DHT22;23441;50.856;6.076;2024-03-23T12:07:17;7.90;99.90
37594;DHT22;23441;50.856;6.076;2024-03-23T12:10:07;7.80;99.90
37594;DHT22;23441;50.856;6.076;2024-03-23T12:13:00;7.60;99.90
37594;DHT22;23441;50.856;6.076;2024-03-23T12:15:49;7.60;99.90
37594;DHT22;23441;50.856;6.076;2024-03-23T12:18:35;8.20;99.90
37594;DHT22;23441;50.856;6.076;2024-03-23T12:21:21;8.60;99.90
37594;DHT22;23441;50.856;6.076;2024-03-23T12:24:08;9.30;99.90
37594;DHT22;23441;50.856;6.076;2024-03-23T12:26:54;9.40;99.90
37594;DHT22;23441;50.856;6.076;2024-03-23T12:29:41;9.00;99.90
37594;DHT22;23441;50.856;6.076;2024-03-23T12:32:33;8.60;99.90
37594;DHT22;23441;50.856;6.076;2024-03-23T12:35:19;8.50;99.90
37594;DHT22;23441;50.856;6.076;2024-03-23T12:38:05;8.30;99.90
37594;DHT22;23441;50.856;6.076;2024-03-23T12:40:51;8.40;99.90
37594;DHT22;23441;50.856;6.076;2024-03-23T12:43:37;8.60;99.90
37594;DHT22;23441;50.856;6.076;2024-03-23T12:46:23;8.70;99.90
37594;DHT22;23441;50.856;6.076;2024-03-23T12:49:09;8.80;99.90
37594;DHT22;23441;50.856;6.076;2024-03-23T12:51:57;9.00;99.90
37594;DHT22;23441;50.856;6.076;2024-03-23T12:54:43;9.10;99.90
37594;DHT22;23441;50.856;6.076;2024-03-23T12:57:29;9.00;99.90
37594;DHT22;23441;50.856;6.076;2024-03-23T13:00:15;9.60;99.90
37594;DHT22;23441;50.856;6.076;2024-03-23T13:03:04;10.00;99.90
37594;DHT22;23441;50.856;6.076;2024-03-23T13:05:53;9.70;99.90
37594;DHT22;23441;50.856;6.076;2024-03-23T13:08:39;8.90;99.90
37594;DHT22;23441;50.856;6.076;2024-03-23T13:11:26;7.70;99.90
37594;DHT22;23441;50.856;6.076;2024-03-23T13:14:12;7.20;99.90
37594;DHT22;23441;50.856;6.076;2024-03-23T13:17:00;7.60;99.90
37594;DHT22;23441;50.856;6.076;2024-03-23T13:19:47;8.00;99.90
37594;DHT22;23441;50.856;6.076;2024-03-23T13:22:33;7.80;99.90
37594;DHT22;23441;50.856;6.076;2024-03-23T13:25:19;7.80;99.90
37594;DHT22;23441;50.856;6.076;2024-03-23T13:28:05;7.70;99.90
37594;DHT22;23441;50.856;6.076;2024-03-23T13:30:55;7.60;99.90
37594;DHT22;23441;50.856;6.076;2024-03-23T13:33:41;7.80;99.90
37594;DHT22;23441;50.856;6.076;2024-03-23T13:36:29;8.40;99.90
37594;DHT22;23441;50.856;6.076;2024-03-23T13:39:15;9.10;99.90
37594;DHT22;23441;50.856;6.076;2024-03-23T13:42:01;9.60;99.90
37594;DHT22;23441;50.856;6.076;2024-03-23T13:44:47;9.80;99.90
37594;DHT22;23441;50.856;6.076;2024-03-23T13:47:34;9.50;99.90
37594;DHT22;23441;50.856;6.076;2024-03-23T13:50:20;9.30;99.90
37594;DHT22;23441;50.856;6.076;2024-03-23T13:53:06;9.30;99.90
37594;DHT22;23441;50.856;6.076;2024-03-23T13:55:52;9.00;99.90
37594;DHT22;23441;50.856;6.076;2024-03-23T13:58:38;8.70;99.90
37594;DHT22;23441;50.856;6.076;2024-03-23T14:01:25;8.60;99.90
37594;DHT22;23441;50.856;6.076;2024-03-23T14:04:11;8.50;99.90
37594;DHT22;23441;50.856;6.076;2024-03-23T14:06:57;7.70;99.90
37594;DHT22;23441;50.856;6.076;2024-03-23T14:09:43;6.70;99.90
37594;DHT22;23441;50.856;6.076;2024-03-23T14:12:30;6.40;99.90
37594;DHT22;23441;50.856;6.076;2024-03-23T14:15:16;6.50;99.90
37594;DHT22;23441;50.856;6.076;2024-03-23T14:18:02;6.60;99.90
37594;DHT22;23441;50.856;6.076;2024-03-23T14:20:50;6.80;99.90
37594;DHT22;23441;50.856;6.076;2024-03-23T14:23:36;7.00;99.90
37594;DHT22;23441;50.856;6.076;2024-03-23T14:26:22;7.20;99.90
37594;DHT22;23441;50.856;6.076;2024-03-23T14:29:08;7.30;99.90
37594;DHT22;23441;50.856;6.076;2024-03-23T14:31:55;7.30;99.90
37594;DHT22;23441;50.856;6.076;2024-03-23T14:34:41;7.40;99.90
37594;DHT22;23441;50.856;6.076;2024-03-23T14:37:27;7.10;99.90
37594;DHT22;23441;50.856;6.076;2024-03-23T14:40:14;7.20;99.90
37594;DHT22;23441;50.856;6.076;2024-03-23T14:43:00;7.50;99.90
37594;DHT22;23441;50.856;6.076;2024-03-23T14:46:15;7.50;99.90
37594;DHT22;23441;50.856;6.076;2024-03-23T14:49:01;7.60;99.90
37594;DHT22;23441;50.856;6.076;2024-03-23T14:51:47;7.70;99.90
37594;DHT22;23441;50.856;6.076;2024-03-23T14:54:33;7.60;99.90
37594;DHT22;23441;50.856;6.076;2024-03-23T14:57:20;7.80;99.90
37594;DHT22;23441;50.856;6.076;2024-03-23T15:00:09;7.70;99.90
37594;DHT22;23441;50.856;6.076;2024-03-23T15:02:59;7.90;99.90
37594;DHT22;23441;50.856;6.076;2024-03-23T15:05:58;7.80;99.90
37594;DHT22;23441;50.856;6.076;2024-03-23T15:08:45;7.70;99.90
37594;DHT22;23441;50.856;6.076;2024-03-23T15:11:31;7.60;99.90
37594;DHT22;23441;50.856;6.076;2024-03-23T15:14:18;7.50;99.90
37594;DHT22;23441;50.856;6.076;2024-03-23T15:17:04;7.30;99.90
37594;DHT22;23441;50.856;6.076;2024-03-23T15:19:53;7.10;99.90
37594;DHT22;23441;50.856;6.076;2024-03-23T15:22:42;6.80;99.90
37594;DHT22;23441;50.856;6.076;2024-03-23T15:25:28;6.10;99.90
37594;DHT22;23441;50.856;6.076;2024-03-23T15:28:14;5.70;99.90
37594;DHT22;23441;50.856;6.076;2024-03-23T15:31:00;5.50;99.90
37594;DHT22;23441;50.856;6.076;2024-03-23T15:33:48;5.50;99.90
37594;DHT22;23441;50.856;6.076;2024-03-23T15:36:34;5.50;99.90
37594;DHT22;23441;50.856;6.076;2024-03-23T15:39:21;5.60;99.90
37594;DHT22;23441;50.856;6.076;2024-03-23T15:42:08;5.70;99.90
37594;DHT22;23441;50.856;6.076;2024-03-23T15:44:54;5.80;99.90
37594;DHT22;23441;50.856;6.076;2024-03-23T15:47:40;5.90;99.90
37594;DHT22;23441;50.856;6.076;2024-03-23T15:50:26;5.90;99.90
37594;DHT22;23441;50.856;6.076;2024-03-23T15:53:12;6.00;99.90
37594;DHT22;23441;50.856;6.076;2024-03-23T15:55:59;6.10;99.90
37594;DHT22;23441;50.856;6.076;2024-03-23T15:58:45;6.30;99.90
37594;DHT22;23441;50.856;6.076;2024-03-23T16:01:35;6.50;99.90
37594;DHT22;23441;50.856;6.076;2024-03-23T16:04:20;6.70;99.90
37594;DHT22;23441;50.856;6.076;2024-03-23T16:07:06;6.50;99.90
37594;DHT22;23441;50.856;6.076;2024-03-23T16:09:52;6.60;99.90
37594;DHT22;23441;50.856;6.076;2024-03-23T16:12:38;6.70;99.90
37594;DHT22;23441;50.856;6.076;2024-03-23T16:15:25;6.60;99.90
37594;DHT22;23441;50.856;6.076;2024-03-23T16:18:11;6.70;99.90
37594;DHT22;23441;50.856;6.076;2024-03-23T16:21:01;6.80;99.90
37594;DHT22;23441;50.856;6.076;2024-03-23T16:23:47;6.70;99.90
37594;DHT22;23441;50.856;6.076;2024-03-23T16:26:34;6.60;99.90
37594;DHT22;23441;50.856;6.076;2024-03-23T16:29:20;6.70;99.90
37594;DHT22;23441;50.856;6.076;2024-03-23T16:32:05;6.70;99.90
37594;DHT22;23441;50.856;6.076;2024-03-23T16:34:51;6.70;99.90
37594;DHT22;23441;50.856;6.076;2024-03-23T16:37:37;6.70;99.90
37594;DHT22;23441;50.856;6.076;2024-03-23T16:40:04;6.70;99.90
37594;DHT22;23441;50.856;6.076;2024-03-23T16:42:37;6.80;99.90
37594;DHT22;23441;50.856;6.076;2024-03-23T16:45:22;6.70;99.90
37594;DHT22;23441;50.856;6.076;2024-03-23T16:48:08;6.70;99.90
37594;DHT22;23441;50.856;6.076;2024-03-23T16:50:37;6.70;99.90
37594;DHT22;23441;50.856;6.076;2024-03-23T16:53:22;6.60;99.90
37594;DHT22;23441;50.856;6.076;2024-03-23T16:56:08;6.60;99.90
37594;DHT22;23441;50.856;6.076;2024-03-23T16:58:54;6.60;99.90
37594;DHT22;23441;50.856;6.076;2024-03-23T17:01:40;6.50;99.90
37594;DHT22;23441;50.856;6.076;2024-03-23T17:04:27;6.60;99.90
37594;DHT22;23441;50.856;6.076;2024-03-23T17:07:12;6.60;99.90
37594;DHT22;23441;50.856;6.076;2024-03-23T17:09:58;6.50;99.90
37594;DHT22;23441;50.856;6.076;2024-03-23T17:12:45;6.50;99.90
37594;DHT22;23441;50.856;6.076;2024-03-23T17:15:31;6.50;99.90
37594;DHT22;23441;50.856;6.076;2024-03-23T17:18:17;6.40;99.90
37594;DHT22;23441;50.856;6.076;2024-03-23T17:21:03;6.40;99.90
37594;DHT22;23441;50.856;6.076;2024-03-23T17:23:49;6.30;99.90
37594;DHT22;23441;50.856;6.076;2024-03-23T17:26:36;6.20;99.90
37594;DHT22;23441;50.856;6.076;2024-03-23T17:29:22;6.20;99.90
37594;DHT22;23441;50.856;6.076;2024-03-23T17:32:08;6.30;99.90
37594;DHT22;23441;50.856;6.076;2024-03-23T17:34:54;6.40;99.90
37594;DHT22;23441;50.856;6.076;2024-03-23T17:37:41;6.60;99.90
37594;DHT22;23441;50.856;6.076;2024-03-23T17:40:28;6.50;99.90
37594;DHT22;23441;50.856;6.076;2024-03-23T17:43:14;6.00;99.90
37594;DHT22;23441;50.856;6.076;2024-03-23T17:46:00;5.00;99.90
37594;DHT22;23441;50.856;6.076;2024-03-23T17:48:46;4.60;99.90
37594;DHT22;23441;50.856;6.076;2024-03-23T17:51:32;4.20;99.90
37594;DHT22;23441;50.856;6.076;2024-03-23T17:54:18;4.10;99.90
37594;DHT22;23441;50.856;6.076;2024-03-23T17:57:06;3.90;99.90
37594;DHT22;23441;50.856;6.076;2024-03-23T17:59:52;3.90;99.90
37594;DHT22;23441;50.856;6.076;2024-03-23T18:02:38;3.90;99.90
37594;DHT22;23441;50.856;6.076;2024-03-23T18:05:24;3.90;99.90
37594;DHT22;23441;50.856;6.076;2024-03-23T18:08:10;3.90;99.90
37594;DHT22;23441;50.856;6.076;2024-03-23T18:10:57;3.80;99.90
37594;DHT22;23441;50.856;6.076;2024-03-23T18:13:43;3.80;99.90
37594;DHT22;23441;50.856;6.076;2024-03-23T18:16:29;3.70;99.90
37594;DHT22;23441;50.856;6.076;2024-03-23T18:19:16;3.60;99.90
37594;DHT22;23441;50.856;6.076;2024-03-23T18:22:02;3.60;99.90
37594;DHT22;23441;50.856;6.076;2024-03-23T18:24:48;3.70;99.90
37594;DHT22;23441;50.856;6.076;2024-03-23T18:27:33;3.70;99.90
37594;DHT22;23441;50.856;6.076;2024-03-23T18:30:19;3.80;99.90
37594;DHT22;23441;50.856;6.076;2024-03-23T18:33:05;3.70;99.90
37594;DHT22;23441;50.856;6.076;2024-03-23T18:35:52;3.80;99.90
37594;DHT22;23441;50.856;6.076;2024-03-23T18:38:38;3.90;99.90
37594;DHT22;23441;50.856;6.076;2024-03-23T18:41:23;4.00;99.90
37594;DHT22;23441;50.856;6.076;2024-03-23T18:44:09;4.10;99.90
37594;DHT22;23441;50.856;6.076;2024-03-23T18:46:55;4.10;99.90
37594;DHT22;23441;50.856;6.076;2024-03-23T18:49:41;4.20;99.90